sensor_id;sensor_type;location;lat;lon;timestamp;pressure;altitude;pressure_sealevel;temperature
75822;BMP180;64454;51.984;9.838;2024-03-08T00:02:24;100776.00;;;0.70
75822;BMP180;64454;51.984;9.838;2024-03-08T00:04:50;100775.00;;;0.70
75822;BMP180;64454;51.984;9.838;2024-03-08T00:07:16;100776.00;;;0.90
75822;BMP180;64454;51.984;9.838;2024-03-08T00:09:42;100771.00;;;0.90
75822;BMP180;64454;51.984;9.838;2024-03-08T00:12:09;100764.00;;;0.80
75822;BMP180;64454;51.984;9.838;2024-03-08T00:14:35;100769.00;;;1.20
75822;BMP180;64454;51.984;9.838;2024-03-08T00:17:03;100761.00;;;1.00
75822;BMP180;64454;51.984;9.838;2024-03-08T00:19:30;100768.00;;;0.30
75822;BMP180;64454;51.984;9.838;2024-03-08T00:21:56;100757.00;;;0.40
75822;BMP180;64454;51.984;9.838;2024-03-08T00:24:22;100756.00;;;0.10
75822;BMP180;64454;51.984;9.838;2024-03-08T00:26:50;100752.00;;;0.20
75822;BMP180;64454;51.984;9.838;2024-03-08T00:29:16;100750.00;;;0.50
75822;BMP180;64454;51.984;9.838;2024-03-08T00:31:43;100757.00;;;0.50
75822;BMP180;64454;51.984;9.838;2024-03-08T00:34:09;100748.00;;;0.10
75822;BMP180;64454;51.984;9.838;2024-03-08T00:36:37;100755.00;;;0.40
75822;BMP180;64454;51.984;9.838;2024-03-08T00:39:04;100750.00;;;0.70
75822;BMP180;64454;51.984;9.838;2024-03-08T00:41:32;100745.00;;;0.80
75822;BMP180;64454;51.984;9.838;2024-03-08T00:43:58;100741.00;;;0.40
75822;BMP180;64454;51.984;9.838;2024-03-08T00:46:24;100732.00;;;0.30
75822;BMP180;64454;51.984;9.838;2024-03-08T00:48:50;100735.00;;;0.10
75822;BMP180;64454;51.984;9.838;2024-03-08T00:51:16;100732.00;;;-0.30
75822;BMP180;64454;51.984;9.838;2024-03-08T00:53:43;100728.00;;;-0.40
75822;BMP180;64454;51.984;9.838;2024-03-08T00:56:09;100732.00;;;0.00
75822;BMP180;64454;51.984;9.838;2024-03-08T00:58:36;100729.00;;;-0.10
75822;BMP180;64454;51.984;9.838;2024-03-08T01:01:03;100728.00;;;0.10
75822;BMP180;64454;51.984;9.838;2024-03-08T01:03:30;100724.00;;;-0.30
75822;BMP180;64454;51.984;9.838;2024-03-08T01:05:57;100713.00;;;0.00
75822;BMP180;64454;51.984;9.838;2024-03-08T01:08:23;100708.00;;;0.10
75822;BMP180;64454;51.984;9.838;2024-03-08T01:10:50;100717.00;;;0.00
75822;BMP180;64454;51.984;9.838;2024-03-08T01:13:16;100705.00;;;0.40
75822;BMP180;64454;51.984;9.838;2024-03-08T01:15:42;100703.00;;;0.40
75822;BMP180;64454;51.984;9.838;2024-03-08T01:18:08;100705.00;;;0.10
75822;BMP180;64454;51.984;9.838;2024-03-08T01:20:35;100694.00;;;0.00
75822;BMP180;64454;51.984;9.838;2024-03-08T01:23:01;100700.00;;;0.30
75822;BMP180;64454;51.984;9.838;2024-03-08T01:25:27;100692.00;;;0.10
75822;BMP180;64454;51.984;9.838;2024-03-08T01:27:54;100698.00;;;0.30
75822;BMP180;64454;51.984;9.838;2024-03-08T01:30:20;100694.00;;;0.20
75822;BMP180;64454;51.984;9.838;2024-03-08T01:32:46;100690.00;;;0.30
75822;BMP180;64454;51.984;9.838;2024-03-08T01:35:12;100689.00;;;0.20
75822;BMP180;64454;51.984;9.838;2024-03-08T01:37:38;100685.00;;;-0.20
75822;BMP180;64454;51.984;9.838;2024-03-08T01:40:06;100678.00;;;-0.70
75822;BMP180;64454;51.984;9.838;2024-03-08T01:42:34;100677.00;;;-0.90
75822;BMP180;64454;51.984;9.838;2024-03-08T01:45:05;100671.00;;;-0.90
75822;BMP180;64454;51.984;9.838;2024-03-08T01:47:32;100662.00;;;-0.80
75822;BMP180;64454;51.984;9.838;2024-03-08T01:49:58;100664.00;;;-0.90
75822;BMP180;64454;51.984;9.838;2024-03-08T01:52:26;100662.00;;;-0.80
75822;BMP180;64454;51.984;9.838;2024-03-08T01:54:52;100655.00;;;-0.80
75822;BMP180;64454;51.984;9.838;2024-03-08T01:57:18;100649.00;;;-0.70
75822;BMP180;64454;51.984;9.838;2024-03-08T01:59:44;100650.00;;;0.00
75822;BMP180;64454;51.984;9.838;2024-03-08T02:02:12;100646.00;;;0.10
75822;BMP180;64454;51.984;9.838;2024-03-08T02:04:40;100643.00;;;0.20
75822;BMP180;64454;51.984;9.838;2024-03-08T02:07:07;100634.00;;;-0.10
75822;BMP180;64454;51.984;9.838;2024-03-08T02:09:33;100639.00;;;-0.20
75822;BMP180;64454;51.984;9.838;2024-03-08T02:11:59;100643.00;;;-0.30
75822;BMP180;64454;51.984;9.838;2024-03-08T02:14:25;100635.00;;;0.00
75822;BMP180;64454;51.984;9.838;2024-03-08T02:16:51;100634.00;;;0.10
75822;BMP180;64454;51.984;9.838;2024-03-08T02:19:18;100630.00;;;0.20
75822;BMP180;64454;51.984;9.838;2024-03-08T02:21:46;100623.00;;;0.30
75822;BMP180;64454;51.984;9.838;2024-03-08T02:24:13;100626.00;;;-0.10
75822;BMP180;64454;51.984;9.838;2024-03-08T02:26:39;100625.00;;;-0.40
75822;BMP180;64454;51.984;9.838;2024-03-08T02:29:05;100626.00;;;-0.50
75822;BMP180;64454;51.984;9.838;2024-03-08T02:31:31;100628.00;;;-0.50
75822;BMP180;64454;51.984;9.838;2024-03-08T02:33:58;100627.00;;;-0.20
75822;BMP180;64454;51.984;9.838;2024-03-08T02:36:25;100624.00;;;-0.20
75822;BMP180;64454;51.984;9.838;2024-03-08T02:38:51;100619.00;;;0.10
75822;BMP180;64454;51.984;9.838;2024-03-08T02:41:18;100616.00;;;-0.10
75822;BMP180;64454;51.984;9.838;2024-03-08T02:43:44;100603.00;;;-0.40
75822;BMP180;64454;51.984;9.838;2024-03-08T02:46:11;100600.00;;;-0.10
75822;BMP180;64454;51.984;9.838;2024-03-08T02:48:37;100599.00;;;-0.30
75822;BMP180;64454;51.984;9.838;2024-03-08T02:51:04;100596.00;;;-0.40
75822;BMP180;64454;51.984;9.838;2024-03-08T02:53:30;100592.00;;;-0.50
75822;BMP180;64454;51.984;9.838;2024-03-08T02:55:57;100594.00;;;-0.90
75822;BMP180;64454;51.984;9.838;2024-03-08T02:58:23;100596.00;;;-1.10
75822;BMP180;64454;51.984;9.838;2024-03-08T03:00:49;100605.00;;;-1.40
75822;BMP180;64454;51.984;9.838;2024-03-08T03:03:15;100603.00;;;-1.20
75822;BMP180;64454;51.984;9.838;2024-03-08T03:05:41;100601.00;;;-0.80
75822;BMP180;64454;51.984;9.838;2024-03-08T03:08:08;100599.00;;;-0.40
75822;BMP180;64454;51.984;9.838;2024-03-08T03:10:34;100588.00;;;-0.50
75822;BMP180;64454;51.984;9.838;2024-03-08T03:13:02;100578.00;;;-0.20
75822;BMP180;64454;51.984;9.838;2024-03-08T03:15:30;100587.00;;;0.00
75822;BMP180;64454;51.984;9.838;2024-03-08T03:17:56;100578.00;;;-0.30
75822;BMP180;64454;51.984;9.838;2024-03-08T03:20:22;100577.00;;;-0.30
75822;BMP180;64454;51.984;9.838;2024-03-08T03:22:52;100569.00;;;-0.70
75822;BMP180;64454;51.984;9.838;2024-03-08T03:25:18;100569.00;;;-0.70
75822;BMP180;64454;51.984;9.838;2024-03-08T03:27:52;100559.00;;;-0.70
75822;BMP180;64454;51.984;9.838;2024-03-08T03:30:18;100569.00;;;-1.20
75822;BMP180;64454;51.984;9.838;2024-03-08T03:32:48;100568.00;;;-1.20
75822;BMP180;64454;51.984;9.838;2024-03-08T03:35:14;100565.00;;;-1.30
75822;BMP180;64454;51.984;9.838;2024-03-08T03:37:41;100567.00;;;-0.90
75822;BMP180;64454;51.984;9.838;2024-03-08T03:40:09;100560.00;;;-0.50
75822;BMP180;64454;51.984;9.838;2024-03-08T03:42:35;100555.00;;;-0.90
75822;BMP180;64454;51.984;9.838;2024-03-08T03:45:05;100559.00;;;-0.80
75822;BMP180;64454;51.984;9.838;2024-03-08T03:47:31;100551.00;;;-0.50
75822;BMP180;64454;51.984;9.838;2024-03-08T03:49:57;100549.00;;;-0.40
75822;BMP180;64454;51.984;9.838;2024-03-08T03:52:27;100549.00;;;-0.60
75822;BMP180;64454;51.984;9.838;2024-03-08T03:54:53;100545.00;;;-0.50
75822;BMP180;64454;51.984;9.838;2024-03-08T03:57:19;100552.00;;;-0.40
75822;BMP180;64454;51.984;9.838;2024-03-08T03:59:45;100554.00;;;-0.50
75822;BMP180;64454;51.984;9.838;2024-03-08T04:02:13;100549.00;;;-0.20
75822;BMP180;64454;51.984;9.838;2024-03-08T04:04:39;100544.00;;;-0.60
75822;BMP180;64454;51.984;9.838;2024-03-08T04:07:06;100549.00;;;-0.20
75822;BMP180;64454;51.984;9.838;2024-03-08T04:09:32;100554.00;;;-0.30
75822;BMP180;64454;51.984;9.838;2024-03-08T04:12:00;100558.00;;;-0.60
75822;BMP180;64454;51.984;9.838;2024-03-08T04:14:26;100552.00;;;-0.80
75822;BMP180;64454;51.984;9.838;2024-03-08T04:16:52;100544.00;;;-0.40
75822;BMP180;64454;51.984;9.838;2024-03-08T04:19:18;100549.00;;;-0.10
75822;BMP180;64454;51.984;9.838;2024-03-08T04:21:45;100545.00;;;-0.40
75822;BMP180;64454;51.984;9.838;2024-03-08T04:24:12;100546.00;;;-0.90
75822;BMP180;64454;51.984;9.838;2024-03-08T04:26:38;100552.00;;;-0.90
75822;BMP180;64454;51.984;9.838;2024-03-08T04:29:05;100535.00;;;-0.50
75822;BMP180;64454;51.984;9.838;2024-03-08T04:31:31;100544.00;;;-0.50
75822;BMP180;64454;51.984;9.838;2024-03-08T04:33:57;100542.00;;;-0.60
75822;BMP180;64454;51.984;9.838;2024-03-08T04:36:23;100541.00;;;-0.50
75822;BMP180;64454;51.984;9.838;2024-03-08T04:38:51;100543.00;;;-0.70
75822;BMP180;64454;51.984;9.838;2024-03-08T04:41:17;100535.00;;;-0.60
75822;BMP180;64454;51.984;9.838;2024-03-08T04:43:44;100530.00;;;-0.50
75822;BMP180;64454;51.984;9.838;2024-03-08T04:46:10;100531.00;;;-0.20
75822;BMP180;64454;51.984;9.838;2024-03-08T04:48:36;100529.00;;;-0.40
75822;BMP180;64454;51.984;9.838;2024-03-08T04:51:03;100532.00;;;-0.80
75822;BMP180;64454;51.984;9.838;2024-03-08T04:53:29;100534.00;;;-0.90
75822;BMP180;64454;51.984;9.838;2024-03-08T04:55:56;100531.00;;;-1.20
75822;BMP180;64454;51.984;9.838;2024-03-08T04:58:23;100536.00;;;-1.80
75822;BMP180;64454;51.984;9.838;2024-03-08T05:00:49;100534.00;;;-1.50
75822;BMP180;64454;51.984;9.838;2024-03-08T05:03:16;100536.00;;;-1.70
75822;BMP180;64454;51.984;9.838;2024-03-08T05:05:42;100534.00;;;-0.80
75822;BMP180;64454;51.984;9.838;2024-03-08T05:08:08;100526.00;;;-0.90
75822;BMP180;64454;51.984;9.838;2024-03-08T05:10:34;100531.00;;;-0.80
75822;BMP180;64454;51.984;9.838;2024-03-08T05:13:01;100521.00;;;-1.20
75822;BMP180;64454;51.984;9.838;2024-03-08T05:15:27;100524.00;;;-1.10
75822;BMP180;64454;51.984;9.838;2024-03-08T05:17:53;100525.00;;;-1.40
75822;BMP180;64454;51.984;9.838;2024-03-08T05:20:19;100520.00;;;-1.60
75822;BMP180;64454;51.984;9.838;2024-03-08T05:22:45;100521.00;;;-1.10
75822;BMP180;64454;51.984;9.838;2024-03-08T05:25:11;100531.00;;;-1.10
75822;BMP180;64454;51.984;9.838;2024-03-08T05:27:40;100529.00;;;-1.00
75822;BMP180;64454;51.984;9.838;2024-03-08T05:30:07;100517.00;;;-1.10
75822;BMP180;64454;51.984;9.838;2024-03-08T05:32:39;100522.00;;;-1.60
75822;BMP180;64454;51.984;9.838;2024-03-08T05:35:05;100530.00;;;-1.50
75822;BMP180;64454;51.984;9.838;2024-03-08T05:37:32;100528.00;;;-1.90
75822;BMP180;64454;51.984;9.838;2024-03-08T05:39:58;100518.00;;;-2.10
75822;BMP180;64454;51.984;9.838;2024-03-08T05:42:24;100513.00;;;-1.30
75822;BMP180;64454;51.984;9.838;2024-03-08T05:44:50;100529.00;;;-1.60
75822;BMP180;64454;51.984;9.838;2024-03-08T05:47:17;100518.00;;;-1.30
75822;BMP180;64454;51.984;9.838;2024-03-08T05:49:44;100526.00;;;-1.20
75822;BMP180;64454;51.984;9.838;2024-03-08T05:52:10;100520.00;;;-0.80
75822;BMP180;64454;51.984;9.838;2024-03-08T05:54:36;100523.00;;;-0.80
75822;BMP180;64454;51.984;9.838;2024-03-08T05:57:03;100522.00;;;-0.90
75822;BMP180;64454;51.984;9.838;2024-03-08T05:59:29;100523.00;;;-1.10
75822;BMP180;64454;51.984;9.838;2024-03-08T06:01:55;100519.00;;;-0.80
75822;BMP180;64454;51.984;9.838;2024-03-08T06:04:22;100517.00;;;-1.20
75822;BMP180;64454;51.984;9.838;2024-03-08T06:06:48;100512.00;;;-1.10
75822;BMP180;64454;51.984;9.838;2024-03-08T06:09:17;100513.00;;;-1.00
75822;BMP180;64454;51.984;9.838;2024-03-08T06:11:48;100511.00;;;-0.90
75822;BMP180;64454;51.984;9.838;2024-03-08T06:14:14;100513.00;;;-0.70
75822;BMP180;64454;51.984;9.838;2024-03-08T06:16:44;100514.00;;;-0.80
75822;BMP180;64454;51.984;9.838;2024-03-08T06:19:10;100514.00;;;-1.20
75822;BMP180;64454;51.984;9.838;2024-03-08T06:21:36;100513.00;;;-0.50
75822;BMP180;64454;51.984;9.838;2024-03-08T06:24:03;100512.00;;;-0.90
75822;BMP180;64454;51.984;9.838;2024-03-08T06:26:30;100515.00;;;-1.10
75822;BMP180;64454;51.984;9.838;2024-03-08T06:28:56;100507.00;;;-1.70
75822;BMP180;64454;51.984;9.838;2024-03-08T06:31:22;100517.00;;;-1.80
75822;BMP180;64454;51.984;9.838;2024-03-08T06:33:49;100507.00;;;-1.90
75822;BMP180;64454;51.984;9.838;2024-03-08T06:36:16;100507.00;;;-1.50
75822;BMP180;64454;51.984;9.838;2024-03-08T06:38:45;100508.00;;;-1.30
75822;BMP180;64454;51.984;9.838;2024-03-08T06:41:12;100513.00;;;-1.50
75822;BMP180;64454;51.984;9.838;2024-03-08T06:43:41;100501.00;;;-1.40
75822;BMP180;64454;51.984;9.838;2024-03-08T06:46:08;100511.00;;;-0.70
75822;BMP180;64454;51.984;9.838;2024-03-08T06:48:34;100499.00;;;-0.90
75822;BMP180;64454;51.984;9.838;2024-03-08T06:51:01;100509.00;;;-1.20
75822;BMP180;64454;51.984;9.838;2024-03-08T06:53:27;100514.00;;;-0.70
75822;BMP180;64454;51.984;9.838;2024-03-08T06:55:53;100512.00;;;-0.30
75822;BMP180;64454;51.984;9.838;2024-03-08T06:58:20;100512.00;;;0.00
75822;BMP180;64454;51.984;9.838;2024-03-08T07:00:46;100507.00;;;0.10
75822;BMP180;64454;51.984;9.838;2024-03-08T07:03:12;100501.00;;;0.00
75822;BMP180;64454;51.984;9.838;2024-03-08T07:05:43;100502.00;;;0.00
75822;BMP180;64454;51.984;9.838;2024-03-08T07:08:09;100500.00;;;0.00
75822;BMP180;64454;51.984;9.838;2024-03-08T07:10:35;100498.00;;;0.10
75822;BMP180;64454;51.984;9.838;2024-03-08T07:13:03;100494.00;;;0.30
75822;BMP180;64454;51.984;9.838;2024-03-08T07:15:29;100497.00;;;0.20
75822;BMP180;64454;51.984;9.838;2024-03-08T07:17:56;100507.00;;;0.20
75822;BMP180;64454;51.984;9.838;2024-03-08T07:20:22;100506.00;;;0.40
75822;BMP180;64454;51.984;9.838;2024-03-08T07:22:48;100491.00;;;0.90
75822;BMP180;64454;51.984;9.838;2024-03-08T07:25:16;100493.00;;;0.90
75822;BMP180;64454;51.984;9.838;2024-03-08T07:27:47;100486.00;;;1.20
75822;BMP180;64454;51.984;9.838;2024-03-08T07:30:14;100480.00;;;1.20
75822;BMP180;64454;51.984;9.838;2024-03-08T07:33:02;100481.00;;;1.10
75822;BMP180;64454;51.984;9.838;2024-03-08T07:35:28;100480.00;;;1.30
75822;BMP180;64454;51.984;9.838;2024-03-08T07:37:54;100485.00;;;1.20
75822;BMP180;64454;51.984;9.838;2024-03-08T07:40:21;100476.00;;;1.20
75822;BMP180;64454;51.984;9.838;2024-03-08T07:42:47;100476.00;;;1.70
75822;BMP180;64454;51.984;9.838;2024-03-08T07:45:14;100475.00;;;1.70
75822;BMP180;64454;51.984;9.838;2024-03-08T07:47:41;100476.00;;;2.00
75822;BMP180;64454;51.984;9.838;2024-03-08T07:50:08;100471.00;;;2.40
75822;BMP180;64454;51.984;9.838;2024-03-08T07:52:34;100454.00;;;3.20
75822;BMP180;64454;51.984;9.838;2024-03-08T07:55:01;100467.00;;;3.30
75822;BMP180;64454;51.984;9.838;2024-03-08T07:57:29;100455.00;;;3.70
75822;BMP180;64454;51.984;9.838;2024-03-08T07:59:55;100461.00;;;4.30
75822;BMP180;64454;51.984;9.838;2024-03-08T08:02:22;100453.00;;;4.20
75822;BMP180;64454;51.984;9.838;2024-03-08T08:04:48;100449.00;;;4.30
75822;BMP180;64454;51.984;9.838;2024-03-08T08:07:14;100452.00;;;3.80
75822;BMP180;64454;51.984;9.838;2024-03-08T08:09:41;100454.00;;;3.30
75822;BMP180;64454;51.984;9.838;2024-03-08T08:12:08;100439.00;;;4.10
75822;BMP180;64454;51.984;9.838;2024-03-08T08:14:37;100443.00;;;5.30
75822;BMP180;64454;51.984;9.838;2024-03-08T08:17:03;100441.00;;;6.90
75822;BMP180;64454;51.984;9.838;2024-03-08T08:19:30;100437.00;;;6.30
75822;BMP180;64454;51.984;9.838;2024-03-08T08:21:57;100434.00;;;7.50
75822;BMP180;64454;51.984;9.838;2024-03-08T08:24:23;100426.00;;;8.30
75822;BMP180;64454;51.984;9.838;2024-03-08T08:26:50;100423.00;;;8.90
75822;BMP180;64454;51.984;9.838;2024-03-08T08:29:16;100417.00;;;8.90
75822;BMP180;64454;51.984;9.838;2024-03-08T08:31:42;100415.00;;;9.90
75822;BMP180;64454;51.984;9.838;2024-03-08T08:34:09;100415.00;;;9.50
75822;BMP180;64454;51.984;9.838;2024-03-08T08:36:37;100418.00;;;10.10
75822;BMP180;64454;51.984;9.838;2024-03-08T08:39:04;100403.00;;;10.80
75822;BMP180;64454;51.984;9.838;2024-03-08T08:41:37;100406.00;;;10.20
75822;BMP180;64454;51.984;9.838;2024-03-08T08:44:03;100405.00;;;11.00
75822;BMP180;64454;51.984;9.838;2024-03-08T08:46:29;100406.00;;;12.10
75822;BMP180;64454;51.984;9.838;2024-03-08T08:48:55;100406.00;;;12.00
75822;BMP180;64454;51.984;9.838;2024-03-08T08:51:22;100403.00;;;11.90
75822;BMP180;64454;51.984;9.838;2024-03-08T08:53:49;100398.00;;;12.90
75822;BMP180;64454;51.984;9.838;2024-03-08T08:56:15;100400.00;;;11.50
75822;BMP180;64454;51.984;9.838;2024-03-08T08:58:41;100390.00;;;12.70
75822;BMP180;64454;51.984;9.838;2024-03-08T09:01:08;100391.00;;;14.30
75822;BMP180;64454;51.984;9.838;2024-03-08T09:03:35;100384.00;;;13.60
75822;BMP180;64454;51.984;9.838;2024-03-08T09:06:03;100387.00;;;13.70
75822;BMP180;64454;51.984;9.838;2024-03-08T09:08:30;100385.00;;;13.50
75822;BMP180;64454;51.984;9.838;2024-03-08T09:10:56;100385.00;;;13.20
75822;BMP180;64454;51.984;9.838;2024-03-08T09:13:22;100380.00;;;14.50
75822;BMP180;64454;51.984;9.838;2024-03-08T09:15:48;100372.00;;;14.80
75822;BMP180;64454;51.984;9.838;2024-03-08T09:18:15;100375.00;;;15.40
75822;BMP180;64454;51.984;9.838;2024-03-08T09:20:41;100371.00;;;16.50
75822;BMP180;64454;51.984;9.838;2024-03-08T09:23:07;100375.00;;;17.10
75822;BMP180;64454;51.984;9.838;2024-03-08T09:25:34;100372.00;;;18.00
75822;BMP180;64454;51.984;9.838;2024-03-08T09:28:00;100369.00;;;16.40
75822;BMP180;64454;51.984;9.838;2024-03-08T09:30:26;100356.00;;;17.50
75822;BMP180;64454;51.984;9.838;2024-03-08T09:32:53;100361.00;;;16.80
75822;BMP180;64454;51.984;9.838;2024-03-08T09:35:19;100358.00;;;17.90
75822;BMP180;64454;51.984;9.838;2024-03-08T09:37:45;100350.00;;;17.70
75822;BMP180;64454;51.984;9.838;2024-03-08T09:40:13;100344.00;;;17.10
75822;BMP180;64454;51.984;9.838;2024-03-08T09:42:41;100336.00;;;18.20
75822;BMP180;64454;51.984;9.838;2024-03-08T09:45:10;100333.00;;;17.80
75822;BMP180;64454;51.984;9.838;2024-03-08T09:47:39;100318.00;;;17.00
75822;BMP180;64454;51.984;9.838;2024-03-08T09:50:07;100316.00;;;18.50
75822;BMP180;64454;51.984;9.838;2024-03-08T09:52:35;100309.00;;;19.70
75822;BMP180;64454;51.984;9.838;2024-03-08T09:55:02;100308.00;;;19.60
75822;BMP180;64454;51.984;9.838;2024-03-08T09:57:30;100306.00;;;19.80
75822;BMP180;64454;51.984;9.838;2024-03-08T09:59:56;100301.00;;;20.20
75822;BMP180;64454;51.984;9.838;2024-03-08T10:02:23;100299.00;;;18.00
75822;BMP180;64454;51.984;9.838;2024-03-08T10:04:51;100301.00;;;19.20
75822;BMP180;64454;51.984;9.838;2024-03-08T10:07:19;100297.00;;;19.80
75822;BMP180;64454;51.984;9.838;2024-03-08T10:09:45;100301.00;;;21.90
75822;BMP180;64454;51.984;9.838;2024-03-08T10:12:16;100286.00;;;20.10
75822;BMP180;64454;51.984;9.838;2024-03-08T10:14:43;100284.00;;;21.80
75822;BMP180;64454;51.984;9.838;2024-03-08T10:17:09;100287.00;;;20.60
75822;BMP180;64454;51.984;9.838;2024-03-08T10:19:36;100281.00;;;22.00
75822;BMP180;64454;51.984;9.838;2024-03-08T10:22:03;100273.00;;;22.10
75822;BMP180;64454;51.984;9.838;2024-03-08T10:24:30;100273.00;;;21.60
75822;BMP180;64454;51.984;9.838;2024-03-08T10:26:59;100273.00;;;18.20
75822;BMP180;64454;51.984;9.838;2024-03-08T10:29:26;100259.00;;;18.30
75822;BMP180;64454;51.984;9.838;2024-03-08T10:31:52;100265.00;;;19.00
75822;BMP180;64454;51.984;9.838;2024-03-08T10:34:18;100266.00;;;20.30
75822;BMP180;64454;51.984;9.838;2024-03-08T10:36:50;100260.00;;;16.30
75822;BMP180;64454;51.984;9.838;2024-03-08T10:39:24;100256.00;;;17.20
75822;BMP180;64454;51.984;9.838;2024-03-08T10:41:57;100258.00;;;18.10
75822;BMP180;64454;51.984;9.838;2024-03-08T10:44:49;100258.00;;;17.60
75822;BMP180;64454;51.984;9.838;2024-03-08T10:47:25;100255.00;;;18.00
75822;BMP180;64454;51.984;9.838;2024-03-08T10:49:59;100257.00;;;19.30
75822;BMP180;64454;51.984;9.838;2024-03-08T10:52:30;100250.00;;;19.80
75822;BMP180;64454;51.984;9.838;2024-03-08T10:54:57;100242.00;;;18.00
75822;BMP180;64454;51.984;9.838;2024-03-08T10:57:24;100245.00;;;19.30
75822;BMP180;64454;51.984;9.838;2024-03-08T10:59:53;100234.00;;;17.80
75822;BMP180;64454;51.984;9.838;2024-03-08T11:02:20;100228.00;;;18.70
75822;BMP180;64454;51.984;9.838;2024-03-08T11:04:48;100226.00;;;18.20
75822;BMP180;64454;51.984;9.838;2024-03-08T11:07:16;100230.00;;;18.30
75822;BMP180;64454;51.984;9.838;2024-03-08T11:09:48;100224.00;;;19.00
75822;BMP180;64454;51.984;9.838;2024-03-08T11:12:22;100223.00;;;19.20
75822;BMP180;64454;51.984;9.838;2024-03-08T11:14:52;100222.00;;;16.40
75822;BMP180;64454;51.984;9.838;2024-03-08T11:17:45;100227.00;;;17.80
75822;BMP180;64454;51.984;9.838;2024-03-08T11:20:14;100225.00;;;17.80
75822;BMP180;64454;51.984;9.838;2024-03-08T11:22:49;100216.00;;;16.90
75822;BMP180;64454;51.984;9.838;2024-03-08T11:25:35;100208.00;;;16.20
75822;BMP180;64454;51.984;9.838;2024-03-08T11:28:13;100208.00;;;16.90
75822;BMP180;64454;51.984;9.838;2024-03-08T11:30:44;100195.00;;;16.60
75822;BMP180;64454;51.984;9.838;2024-03-08T11:33:13;100194.00;;;16.30
75822;BMP180;64454;51.984;9.838;2024-03-08T11:35:41;100192.00;;;14.60
75822;BMP180;64454;51.984;9.838;2024-03-08T11:38:08;100189.00;;;15.90
75822;BMP180;64454;51.984;9.838;2024-03-08T11:40:36;100186.00;;;14.90
75822;BMP180;64454;51.984;9.838;2024-03-08T11:43:03;100185.00;;;15.10
75822;BMP180;64454;51.984;9.838;2024-03-08T11:45:33;100181.00;;;14.90
75822;BMP180;64454;51.984;9.838;2024-03-08T11:48:02;100180.00;;;14.40
75822;BMP180;64454;51.984;9.838;2024-03-08T11:50:29;100175.00;;;14.10
75822;BMP180;64454;51.984;9.838;2024-03-08T11:53:01;100180.00;;;14.40
75822;BMP180;64454;51.984;9.838;2024-03-08T11:55:28;100169.00;;;14.60
75822;BMP180;64454;51.984;9.838;2024-03-08T11:58:02;100168.00;;;14.90
75822;BMP180;64454;51.984;9.838;2024-03-08T12:00:28;100164.00;;;15.10
75822;BMP180;64454;51.984;9.838;2024-03-08T12:03:05;100167.00;;;13.40
75822;BMP180;64454;51.984;9.838;2024-03-08T12:05:32;100165.00;;;13.50
75822;BMP180;64454;51.984;9.838;2024-03-08T12:07:59;100139.00;;;14.50
75822;BMP180;64454;51.984;9.838;2024-03-08T12:10:26;100150.00;;;13.70
75822;BMP180;64454;51.984;9.838;2024-03-08T12:12:55;100141.00;;;13.60
75822;BMP180;64454;51.984;9.838;2024-03-08T12:15:23;100130.00;;;14.90
75822;BMP180;64454;51.984;9.838;2024-03-08T12:17:51;100129.00;;;15.50
75822;BMP180;64454;51.984;9.838;2024-03-08T12:20:20;100128.00;;;15.10
75822;BMP180;64454;51.984;9.838;2024-03-08T12:22:48;100129.00;;;14.70
75822;BMP180;64454;51.984;9.838;2024-03-08T12:25:15;100131.00;;;14.30
75822;BMP180;64454;51.984;9.838;2024-03-08T12:27:43;100123.00;;;14.90
75822;BMP180;64454;51.984;9.838;2024-03-08T12:30:22;100120.00;;;13.10
75822;BMP180;64454;51.984;9.838;2024-03-08T12:32:53;100114.00;;;13.50
75822;BMP180;64454;51.984;9.838;2024-03-08T12:35:20;100104.00;;;14.90
75822;BMP180;64454;51.984;9.838;2024-03-08T12:37:50;100100.00;;;14.70
75822;BMP180;64454;51.984;9.838;2024-03-08T12:40:17;100101.00;;;15.50
75822;BMP180;64454;51.984;9.838;2024-03-08T12:42:43;100105.00;;;16.00
75822;BMP180;64454;51.984;9.838;2024-03-08T12:45:10;100101.00;;;14.90
75822;BMP180;64454;51.984;9.838;2024-03-08T12:47:37;100110.00;;;14.40
75822;BMP180;64454;51.984;9.838;2024-03-08T12:50:04;100085.00;;;13.90
75822;BMP180;64454;51.984;9.838;2024-03-08T12:52:30;100074.00;;;15.60
75822;BMP180;64454;51.984;9.838;2024-03-08T12:54:56;100073.00;;;15.50
75822;BMP180;64454;51.984;9.838;2024-03-08T12:57:23;100050.00;;;16.80
75822;BMP180;64454;51.984;9.838;2024-03-08T12:59:52;100048.00;;;16.80
75822;BMP180;64454;51.984;9.838;2024-03-08T13:02:19;100046.00;;;18.40
75822;BMP180;64454;51.984;9.838;2024-03-08T13:04:49;100046.00;;;18.50
75822;BMP180;64454;51.984;9.838;2024-03-08T13:07:21;100048.00;;;18.70
75822;BMP180;64454;51.984;9.838;2024-03-08T13:09:49;100033.00;;;19.10
75822;BMP180;64454;51.984;9.838;2024-03-08T13:12:15;100041.00;;;18.60
75822;BMP180;64454;51.984;9.838;2024-03-08T13:14:41;100037.00;;;18.40
75822;BMP180;64454;51.984;9.838;2024-03-08T13:17:08;100033.00;;;19.30
75822;BMP180;64454;51.984;9.838;2024-03-08T13:19:36;100029.00;;;18.70
75822;BMP180;64454;51.984;9.838;2024-03-08T13:22:04;100036.00;;;17.80
75822;BMP180;64454;51.984;9.838;2024-03-08T13:24:31;100028.00;;;18.60
75822;BMP180;64454;51.984;9.838;2024-03-08T13:26:57;100031.00;;;16.90
75822;BMP180;64454;51.984;9.838;2024-03-08T13:29:24;100021.00;;;18.20
75822;BMP180;64454;51.984;9.838;2024-03-08T13:31:50;100020.00;;;17.40
75822;BMP180;64454;51.984;9.838;2024-03-08T13:34:17;100026.00;;;18.30
75822;BMP180;64454;51.984;9.838;2024-03-08T13:36:44;100025.00;;;19.50
75822;BMP180;64454;51.984;9.838;2024-03-08T13:39:12;100018.00;;;17.00
75822;BMP180;64454;51.984;9.838;2024-03-08T13:41:41;100016.00;;;17.90
75822;BMP180;64454;51.984;9.838;2024-03-08T13:44:07;100010.00;;;18.50
75822;BMP180;64454;51.984;9.838;2024-03-08T13:46:34;100010.00;;;18.40
75822;BMP180;64454;51.984;9.838;2024-03-08T13:49:05;100010.00;;;18.10
75822;BMP180;64454;51.984;9.838;2024-03-08T13:51:31;100003.00;;;17.40
75822;BMP180;64454;51.984;9.838;2024-03-08T13:53:58;100009.00;;;18.30
75822;BMP180;64454;51.984;9.838;2024-03-08T13:56:26;100000.00;;;17.30
75822;BMP180;64454;51.984;9.838;2024-03-08T13:58:53;99997.00;;;19.30
75822;BMP180;64454;51.984;9.838;2024-03-08T14:01:22;100007.00;;;17.70